Time;durP1;ratioP1;P1;durP2;ratioP2;P2;SDS_P1;SDS_P2;PMS_P1;PMS_P2;Temp;Humidity;BMP_temperature;BMP_pressure;BME280_temperature;BME280_humidity;BME280_pressure;Samples;Min_cycle;Max_cycle;Signal;HPM_P1;HPM_P2
2023/03/13 00:01:37;;;;;;;10.13;4.70;;;;;;;;;;5124150;28;20034;-44
2023/03/13 00:04:03;;;;;;;8.00;4.57;;;;;;;;;;5125331;28;20062;-46
2023/03/13 00:06:31;;;;;;;7.25;4.53;;;;;;;;;;5125579;28;20107;-45
2023/03/13 00:08:59;;;;;;;7.50;4.25;;;;;;;;;;5124895;27;20120;-44
2023/03/13 00:11:25;;;;;;;8.73;4.70;;;;;;;;;;5124593;27;20023;-45
2023/03/13 00:13:54;;;;;;;7.82;4.45;;;;;;;;;;5125421;28;20023;-44
2023/03/13 00:16:21;;;;;;;6.15;4.00;;;;;;;;;;5124306;28;20034;-45
2023/03/13 00:18:48;;;;;;;5.07;3.13;;;;;;;;;;5125505;27;20058;-44
2023/03/13 00:21:14;;;;;;;6.15;3.70;;;;;;;;;;5128852;27;20410;-44
2023/03/13 00:23:41;;;;;;;6.88;3.95;;;;;;;;;;5128805;27;20301;-46
2023/03/13 00:26:11;;;;;;;4.68;3.35;;;;;;;;;;5129287;27;20474;-44
2023/03/13 00:28:37;;;;;;;5.70;3.10;;;;;;;;;;5128856;27;20031;-45
2023/03/13 00:31:05;;;;;;;5.78;3.05;;;;;;;;;;5129662;27;20033;-45
2023/03/13 00:33:41;;;;;;;3.88;2.42;;;;;;;;;;5128902;27;20410;-46
2023/03/13 00:36:12;;;;;;;4.18;2.35;;;;;;;;;;5128997;27;20023;-46
2023/03/13 00:38:38;;;;;;;3.92;2.25;;;;;;;;;;5128608;27;20857;-46
2023/03/13 00:41:11;;;;;;;3.53;2.20;;;;;;;;;;5129299;27;20027;-45
2023/03/13 00:43:39;;;;;;;3.70;2.13;;;;;;;;;;5128701;27;20300;-44
2023/03/13 00:46:05;;;;;;;3.42;2.17;;;;;;;;;;5128795;27;20031;-46
2023/03/13 00:48:32;;;;;;;2.67;1.80;;;;;;;;;;5128515;27;20050;-44
2023/03/13 00:50:59;;;;;;;3.75;2.10;;;;;;;;;;5128598;27;20035;-47
2023/03/13 00:53:25;;;;;;;2.30;1.80;;;;;;;;;;5128395;27;20019;-46
2023/03/13 00:55:52;;;;;;;3.58;1.70;;;;;;;;;;5129012;27;20500;-45
2023/03/13 00:58:18;;;;;;;2.75;1.60;;;;;;;;;;5128223;27;20030;-45
2023/03/13 01:00:44;;;;;;;2.40;1.63;;;;;;;;;;5128157;27;20063;-44
2023/03/13 01:03:11;;;;;;;2.45;1.58;;;;;;;;;;5127990;27;20027;-44
2023/03/13 06:13:12;;;;;;;0.95;0.85;;;;;;;;;;5128281;27;20280;-44
2023/03/13 06:15:38;;;;;;;1.83;1.25;;;;;;;;;;5110565;28;20498;-44
2023/03/13 06:18:04;;;;;;;1.10;1.00;;;;;;;;;;5129234;27;20027;-43
2023/03/13 06:20:30;;;;;;;1.95;1.27;;;;;;;;;;5129955;27;20153;-44
2023/03/13 06:22:56;;;;;;;1.63;1.10;;;;;;;;;;5129490;27;20031;-45
2023/03/13 06:25:24;;;;;;;0.95;0.88;;;;;;;;;;5129470;27;20409;-44
2023/03/13 06:27:50;;;;;;;1.00;0.90;;;;;;;;;;5129596;27;20540;-44
2023/03/13 06:30:16;;;;;;;1.23;1.08;;;;;;;;;;5129250;27;20019;-44
2023/03/13 06:32:42;;;;;;;1.55;1.08;;;;;;;;;;5129192;27;20046;-45
2023/03/13 06:35:08;;;;;;;1.80;1.00;;;;;;;;;;5129507;27;20023;-44
2023/03/13 06:37:34;;;;;;;1.52;1.00;;;;;;;;;;5129735;27;20026;-44
2023/03/13 06:40:00;;;;;;;1.20;0.90;;;;;;;;;;5129152;27;20120;-46
2023/03/13 06:42:26;;;;;;;1.88;1.20;;;;;;;;;;5128702;27;20101;-44
2023/03/13 06:44:52;;;;;;;1.42;1.10;;;;;;;;;;5129044;27;20394;-46
2023/03/13 06:47:18;;;;;;;1.85;1.30;;;;;;;;;;5128967;27;20046;-45
2023/03/13 06:49:45;;;;;;;2.33;1.48;;;;;;;;;;5129165;27;20409;-46
2023/03/13 06:52:11;;;;;;;1.90;1.30;;;;;;;;;;5128893;27;20061;-45
2023/03/13 06:54:37;;;;;;;2.03;1.25;;;;;;;;;;5128975;27;20027;-44
2023/03/13 06:57:03;;;;;;;1.88;1.27;;;;;;;;;;5127679;27;20027;-47
2023/03/13 06:59:29;;;;;;;2.50;1.40;;;;;;;;;;5128365;27;20023;-44
2023/03/13 07:01:55;;;;;;;2.38;1.40;;;;;;;;;;5129611;27;20027;-47
2023/03/13 07:04:21;;;;;;;1.67;1.30;;;;;;;;;;5129830;27;20019;-44
2023/03/13 07:06:48;;;;;;;1.48;1.02;;;;;;;;;;5129828;27;20046;-44
2023/03/13 07:09:14;;;;;;;1.83;1.23;;;;;;;;;;5128904;27;20505;-45
2023/03/13 07:11:40;;;;;;;1.50;1.10;;;;;;;;;;5129272;27;20118;-45
2023/03/13 07:14:06;;;;;;;1.48;1.10;;;;;;;;;;5129495;27;20038;-45
2023/03/13 07:16:32;;;;;;;1.38;1.08;;;;;;;;;;5129822;27;20027;-44
2023/03/13 07:18:58;;;;;;;1.08;0.90;;;;;;;;;;5129721;27;20502;-48
2023/03/13 07:21:24;;;;;;;1.13;1.00;;;;;;;;;;5129839;27;20035;-45
2023/03/13 07:23:50;;;;;;;1.38;1.00;;;;;;;;;;5129614;27;20027;-45
2023/03/13 07:26:16;;;;;;;1.65;0.70;;;;;;;;;;5129340;27;20037;-46
2023/03/13 07:28:42;;;;;;;0.60;0.60;;;;;;;;;;5128817;27;20027;-44
2023/03/13 07:31:13;;;;;;;1.05;0.73;;;;;;;;;;5129475;27;20104;-44
2023/03/13 07:33:39;;;;;;;0.98;0.70;;;;;;;;;;5128730;27;20019;-44
2023/03/13 07:36:05;;;;;;;0.80;0.70;;;;;;;;;;5129953;27;20034;-46
2023/03/13 07:38:32;;;;;;;0.73;0.73;;;;;;;;;;5129510;27;20452;-46
2023/03/13 07:40:58;;;;;;;0.68;0.68;;;;;;;;;;5127245;27;20463;-45
2023/03/13 07:43:24;;;;;;;1.30;0.88;;;;;;;;;;5127630;27;20058;-44
2023/03/13 07:45:55;;;;;;;1.38;0.63;;;;;;;;;;5127776;27;20080;-44
2023/03/13 07:48:22;;;;;;;0.70;0.57;;;;;;;;;;5127813;27;20135;-45
2023/03/13 07:50:48;;;;;;;0.95;0.60;;;;;;;;;;5127187;27;20525;-43
2023/03/13 07:53:20;;;;;;;1.05;0.60;;;;;;;;;;5128403;27;20395;-45
2023/03/13 07:56:12;;;;;;;0.50;0.50;;;;;;;;;;5129523;27;20110;-45
2023/03/13 07:58:39;;;;;;;1.60;0.60;;;;;;;;;;5126336;27;20038;-46
2023/03/13 08:01:15;;;;;;;0.82;0.57;;;;;;;;;;5128789;27;20019;-45
2023/03/13 08:03:42;;;;;;;0.50;0.50;;;;;;;;;;5125220;27;20027;-44
2023/03/13 08:06:12;;;;;;;0.60;0.50;;;;;;;;;;5111200;28;20401;-45
2023/03/13 08:08:38;;;;;;;1.52;0.85;;;;;;;;;;5129586;27;20023;-43
2023/03/13 08:11:09;;;;;;;1.15;0.77;;;;;;;;;;5129112;28;20031;-48
2023/03/13 08:13:35;;;;;;;1.63;0.70;;;;;;;;;;5120091;27;20051;-44
2023/03/13 08:16:07;;;;;;;1.38;0.68;;;;;;;;;;5107262;28;20043;-44
2023/03/13 08:18:33;;;;;;;2.20;0.80;;;;;;;;;;5104135;28;20122;-44
2023/03/13 08:21:09;;;;;;;1.48;1.20;;;;;;;;;;5107402;28;20051;-45
2023/03/13 08:23:36;;;;;;;2.10;1.00;;;;;;;;;;5107738;28;20019;-47
2023/03/13 08:26:03;;;;;;;2.15;0.85;;;;;;;;;;5106277;28;20023;-44
2023/03/13 08:28:29;;;;;;;1.10;0.85;;;;;;;;;;5107468;28;20019;-46
2023/03/13 08:30:55;;;;;;;3.90;1.10;;;;;;;;;;5107345;28;20475;-45
2023/03/13 08:33:22;;;;;;;1.15;0.98;;;;;;;;;;5107333;28;20032;-43
2023/03/13 08:35:48;;;;;;;2.63;1.00;;;;;;;;;;5107743;28;20088;-44
2023/03/13 08:38:14;;;;;;;1.70;0.90;;;;;;;;;;5107365;28;20501;-45
2023/03/13 08:40:40;;;;;;;1.58;0.80;;;;;;;;;;5110490;28;20031;-44
2023/03/13 08:43:06;;;;;;;1.02;0.80;;;;;;;;;;5111070;28;20444;-45
2023/03/13 08:45:32;;;;;;;3.30;0.77;;;;;;;;;;5111373;28;20619;-45
2023/03/13 08:47:58;;;;;;;0.80;0.80;;;;;;;;;;5110282;28;20042;-44
2023/03/13 08:50:24;;;;;;;0.77;0.70;;;;;;;;;;5109747;28;20031;-44
2023/03/13 08:52:50;;;;;;;0.88;0.70;;;;;;;;;;5111291;28;20032;-44
2023/03/13 08:55:16;;;;;;;2.30;0.90;;;;;;;;;;5110411;28;20035;-43
2023/03/13 08:57:43;;;;;;;1.30;0.85;;;;;;;;;;5106426;28;20032;-45
2023/03/13 09:00:10;;;;;;;1.27;0.88;;;;;;;;;;5109498;28;20957;-45
2023/03/13 09:02:37;;;;;;;1.52;0.85;;;;;;;;;;5107544;28;20027;-46
2023/03/13 09:05:03;;;;;;;1.23;0.80;;;;;;;;;;5114082;27;20038;-45
2023/03/13 09:07:29;;;;;;;1.98;0.95;;;;;;;;;;5107705;27;20027;-45
2023/03/13 09:09:56;;;;;;;1.20;0.77;;;;;;;;;;5109514;28;20034;-44
2023/03/13 09:12:23;;;;;;;1.58;1.10;;;;;;;;;;5107115;28;20091;-45
2023/03/13 09:14:49;;;;;;;1.08;0.80;;;;;;;;;;5121431;27;20027;-43
2023/03/13 09:17:15;;;;;;;1.50;0.75;;;;;;;;;;5127991;27;20047;-44
2023/03/13 09:19:41;;;;;;;1.30;0.93;;;;;;;;;;5129889;27;20069;-44
2023/03/13 09:22:08;;;;;;;1.58;0.82;;;;;;;;;;5123319;27;20512;-45
2023/03/13 09:24:34;;;;;;;1.15;0.90;;;;;;;;;;5129585;27;20046;-44
2023/03/13 09:27:01;;;;;;;1.60;0.90;;;;;;;;;;5127241;27;20023;-44
2023/03/13 09:29:28;;;;;;;0.90;0.70;;;;;;;;;;5129566;27;20477;-44
2023/03/13 09:31:55;;;;;;;1.77;1.00;;;;;;;;;;5128171;27;20031;-44
2023/03/13 09:34:24;;;;;;;1.25;0.90;;;;;;;;;;5129576;27;20106;-44
2023/03/13 09:36:50;;;;;;;1.08;0.80;;;;;;;;;;5127783;27;20027;-45
2023/03/13 09:39:16;;;;;;;1.63;0.80;;;;;;;;;;5129738;27;20023;-43
2023/03/13 09:41:57;;;;;;;1.67;1.00;;;;;;;;;;5128159;27;20050;-45
2023/03/13 09:44:31;;;;;;;2.05;0.95;;;;;;;;;;5129081;27;20035;-45
2023/03/13 09:47:05;;;;;;;1.45;0.80;;;;;;;;;;5127500;27;20039;-45
2023/03/13 09:49:37;;;;;;;1.70;0.73;;;;;;;;;;5129480;27;20015;-44
2023/03/13 09:52:03;;;;;;;1.85;0.93;;;;;;;;;;5127468;27;20099;-44
2023/03/13 09:54:35;;;;;;;1.58;1.02;;;;;;;;;;5129303;27;20023;-44
2023/03/13 09:57:07;;;;;;;0.98;0.70;;;;;;;;;;5129640;27;20441;-48
2023/03/13 09:59:45;;;;;;;1.52;1.00;;;;;;;;;;5128767;27;20027;-45
2023/03/13 10:02:23;;;;;;;1.45;0.90;;;;;;;;;;5128944;27;20030;-44
2023/03/13 10:04:57;;;;;;;1.55;1.10;;;;;;;;;;5123459;27;20023;-43
2023/03/13 10:07:23;;;;;;;0.70;0.68;;;;;;;;;;5129174;27;20087;-45
2023/03/13 10:09:49;;;;;;;2.20;0.88;;;;;;;;;;5130015;27;20023;-46
2023/03/13 10:12:20;;;;;;;1.05;0.70;;;;;;;;;;5127645;27;20062;-44
2023/03/13 10:15:04;;;;;;;5.03;1.35;;;;;;;;;;5128603;27;20019;-46
2023/03/13 10:17:32;;;;;;;1.67;1.00;;;;;;;;;;5126740;27;20029;-48
2023/03/13 10:20:23;;;;;;;0.73;0.70;;;;;;;;;;5129840;27;20023;-44
2023/03/13 10:22:52;;;;;;;1.23;0.80;;;;;;;;;;5118443;27;20118;-45
2023/03/13 10:25:27;;;;;;;1.08;0.68;;;;;;;;;;5128984;27;20034;-46
2023/03/13 10:27:54;;;;;;;1.25;0.70;;;;;;;;;;5128485;27;20066;-45
2023/03/13 10:30:24;;;;;;;1.48;0.80;;;;;;;;;;5130364;27;20520;-45
2023/03/13 10:32:53;;;;;;;1.60;0.80;;;;;;;;;;5128682;27;20027;-44
2023/03/13 10:35:23;;;;;;;2.28;0.90;;;;;;;;;;5128345;27;20019;-45
2023/03/13 10:37:49;;;;;;;1.02;0.60;;;;;;;;;;5138931;27;20497;-44
2023/03/13 10:40:26;;;;;;;2.42;0.70;;;;;;;;;;5137911;27;20554;-43
2023/03/13 10:42:53;;;;;;;0.73;0.60;;;;;;;;;;5128333;27;20472;-44
2023/03/13 10:45:20;;;;;;;3.58;0.88;;;;;;;;;;5128650;27;20519;-44
2023/03/13 10:47:53;;;;;;;0.90;0.65;;;;;;;;;;5128532;27;20023;-44
2023/03/13 10:50:21;;;;;;;1.50;0.57;;;;;;;;;;5128475;27;20062;-46
2023/03/13 10:52:49;;;;;;;0.63;0.63;;;;;;;;;;5127953;27;20027;-45
2023/03/13 10:55:22;;;;;;;0.80;0.60;;;;;;;;;;5128001;27;20023;-45
2023/03/13 10:58:11;;;;;;;0.73;0.73;;;;;;;;;;5128066;27;20079;-44
2023/03/13 11:00:40;;;;;;;0.90;0.52;;;;;;;;;;5113257;27;20102;-45
2023/03/13 11:03:20;;;;;;;1.40;0.60;;;;;;;;;;5127603;27;20054;-45
2023/03/13 11:05:57;;;;;;;0.50;0.50;;;;;;;;;;5126681;27;20031;-46
2023/03/13 11:08:36;;;;;;;0.40;0.40;;;;;;;;;;5126860;27;20121;-44
2023/03/13 11:11:15;;;;;;;1.17;0.50;;;;;;;;;;5128526;27;20408;-45
2023/03/13 11:13:42;;;;;;;1.23;0.88;;;;;;;;;;5128813;27;20039;-47
2023/03/13 11:16:13;;;;;;;0.65;0.50;;;;;;;;;;5124867;27;20027;-46
2023/03/13 11:18:59;;;;;;;0.85;0.60;;;;;;;;;;5111445;27;20448;-45
2023/03/13 11:21:37;;;;;;;1.27;0.75;;;;;;;;;;5101106;28;20035;-46
2023/03/13 11:24:09;;;;;;;0.82;0.50;;;;;;;;;;5123524;27;20035;-47
2023/03/13 11:26:41;;;;;;;2.30;0.50;;;;;;;;;;5129078;27;20096;-45
2023/03/13 11:29:13;;;;;;;1.88;0.60;;;;;;;;;;5128996;27;20034;-45
2023/03/13 11:31:40;;;;;;;0.50;0.50;;;;;;;;;;5128621;27;20037;-45
2023/03/13 11:34:18;;;;;;;0.85;0.57;;;;;;;;;;5128122;27;20019;-45
2023/03/13 11:36:47;;;;;;;0.98;0.57;;;;;;;;;;5128687;27;20091;-45
2023/03/13 11:39:29;;;;;;;0.95;0.40;;;;;;;;;;5128924;27;20568;-45
2023/03/13 11:41:58;;;;;;;1.10;0.70;;;;;;;;;;5128812;27;20023;-45
2023/03/13 11:44:24;;;;;;;0.50;0.50;;;;;;;;;;5128903;27;20027;-47
2023/03/13 11:46:53;;;;;;;2.67;0.60;;;;;;;;;;5128910;27;20038;-45
2023/03/13 11:49:28;;;;;;;0.50;0.50;;;;;;;;;;5128486;27;20035;-44
2023/03/13 11:52:13;;;;;;;0.60;0.50;;;;;;;;;;5128452;27;20034;-46
2023/03/13 11:54:39;;;;;;;;;;;;;;;;;;5129319;27;20031;-45
2023/03/13 11:57:11;;;;;;;0.70;0.50;;;;;;;;;;5128502;27;19904;-46
2023/03/13 11:59:49;;;;;;;1.38;0.40;;;;;;;;;;5128567;27;20024;-45
2023/03/13 12:02:21;;;;;;;1.05;0.50;;;;;;;;;;5128225;27;20046;-47
2023/03/13 12:04:51;;;;;;;0.95;0.63;;;;;;;;;;5128282;27;20209;-48
2023/03/13 12:07:17;;;;;;;1.65;0.73;;;;;;;;;;5128480;28;20527;-46
2023/03/13 12:09:50;;;;;;;1.25;0.50;;;;;;;;;;5128302;27;20038;-47
2023/03/13 12:12:46;;;;;;;1.85;0.57;;;;;;;;;;5128980;27;20375;-44
2023/03/13 12:15:18;;;;;;;3.63;0.55;;;;;;;;;;5093171;28;20043;-47
2023/03/13 12:17:53;;;;;;;1.10;0.50;;;;;;;;;;5128001;27;20070;-44
2023/03/13 12:20:27;;;;;;;0.82;0.55;;;;;;;;;;5130933;27;20065;-45
2023/03/13 12:23:07;;;;;;;0.47;0.43;;;;;;;;;;5132236;27;20039;-45
2023/03/13 12:25:53;;;;;;;2.28;0.60;;;;;;;;;;5132512;27;20034;-46
2023/03/13 12:28:25;;;;;;;1.10;0.50;;;;;;;;;;5121617;27;20082;-45
2023/03/13 12:30:57;;;;;;;2.22;0.50;;;;;;;;;;5132261;27;20027;-45
2023/03/13 12:33:26;;;;;;;0.52;0.50;;;;;;;;;;5131072;27;20115;-44
2023/03/13 12:36:12;;;;;;;1.17;0.52;;;;;;;;;;5131615;27;20033;-46
2023/03/13 12:38:45;;;;;;;1.75;0.82;;;;;;;;;;5132629;27;20038;-45
2023/03/13 12:41:11;;;;;;;1.85;0.50;;;;;;;;;;5132824;27;20024;-46
2023/03/13 12:43:39;;;;;;;0.80;0.60;;;;;;;;;;5132135;27;20023;-45
2023/03/13 12:46:19;;;;;;;1.95;0.70;;;;;;;;;;5111860;28;20020;-48
2023/03/13 12:48:51;;;;;;;1.20;0.63;;;;;;;;;;5129322;27;20027;-44
2023/03/13 12:51:17;;;;;;;1.25;0.80;;;;;;;;;;5131721;27;20027;-46
2023/03/13 12:53:43;;;;;;;1.83;0.93;;;;;;;;;;5132630;27;20051;-46
2023/03/13 12:56:15;;;;;;;1.33;0.70;;;;;;;;;;5132085;27;20019;-47
2023/03/13 12:58:49;;;;;;;1.23;0.70;;;;;;;;;;5131785;27;20058;-45
2023/03/13 13:01:24;;;;;;;0.90;0.60;;;;;;;;;;5131609;27;20478;-44
2023/03/13 13:03:58;;;;;;;0.50;0.50;;;;;;;;;;5129805;27;20069;-47
2023/03/13 13:06:25;;;;;;;1.17;0.63;;;;;;;;;;5130219;27;20042;-46
2023/03/13 13:08:51;;;;;;;1.85;0.60;;;;;;;;;;5129523;27;20028;-46
2023/03/13 13:11:36;;;;;;;2.10;0.52;;;;;;;;;;5129741;27;20033;-45
2023/03/13 13:14:05;;;;;;;1.38;0.60;;;;;;;;;;5129333;27;20082;-47
2023/03/13 13:16:31;;;;;;;1.27;0.75;;;;;;;;;;5130320;27;20020;-45
2023/03/13 13:19:18;;;;;;;2.05;0.68;;;;;;;;;;5123003;27;20057;-48
2023/03/13 13:21:44;;;;;;;0.50;0.50;;;;;;;;;;5110207;27;20043;-45
2023/03/13 13:24:34;;;;;;;1.20;0.70;;;;;;;;;;5130991;27;20027;-46
2023/03/13 13:27:00;;;;;;;1.73;0.70;;;;;;;;;;5123510;27;20039;-45
2023/03/13 13:29:26;;;;;;;1.70;0.60;;;;;;;;;;5130135;27;20076;-48
2023/03/13 13:31:58;;;;;;;0.88;0.50;;;;;;;;;;5130059;27;20510;-46
2023/03/13 13:34:28;;;;;;;1.52;0.70;;;;;;;;;;5130252;27;20055;-47
2023/03/13 13:36:58;;;;;;;1.17;0.60;;;;;;;;;;5130196;27;20443;-45
2023/03/13 13:39:27;;;;;;;1.90;0.60;;;;;;;;;;5129937;27;20108;-45
2023/03/13 13:41:53;;;;;;;3.35;0.93;;;;;;;;;;5129818;27;20030;-45
2023/03/13 13:44:21;;;;;;;1.10;0.70;;;;;;;;;;5129751;27;20074;-45
2023/03/13 13:46:47;;;;;;;1.10;0.60;;;;;;;;;;5130030;27;20033;-46
2023/03/13 13:49:15;;;;;;;2.42;0.60;;;;;;;;;;5130437;27;20055;-44
2023/03/13 13:51:42;;;;;;;1.10;0.85;;;;;;;;;;5130219;27;20394;-47
2023/03/13 13:54:27;;;;;;;1.15;0.80;;;;;;;;;;5129823;27;20023;-46
2023/03/13 13:57:07;;;;;;;2.90;0.70;;;;;;;;;;5129536;27;20035;-45
2023/03/13 13:59:39;;;;;;;1.83;0.88;;;;;;;;;;5129331;27;20102;-45
2023/03/13 14:02:08;;;;;;;1.52;0.80;;;;;;;;;;5129576;27;20746;-46
2023/03/13 14:04:57;;;;;;;1.27;0.70;;;;;;;;;;5129568;27;20065;-47
2023/03/13 14:07:42;;;;;;;1.05;0.80;;;;;;;;;;5120630;27;20043;-46
2023/03/13 14:10:21;;;;;;;1.10;0.90;;;;;;;;;;5129640;27;20104;-44
2023/03/13 14:12:51;;;;;;;3.25;1.00;;;;;;;;;;5119862;27;20510;-45
2023/03/13 14:15:18;;;;;;;1.10;0.65;;;;;;;;;;5091507;28;20161;-47
2023/03/13 14:17:51;;;;;;;0.73;0.60;;;;;;;;;;5089471;28;20449;-45
2023/03/13 14:20:18;;;;;;;0.70;0.50;;;;;;;;;;5104133;28;20135;-47
2023/03/13 14:22:45;;;;;;;1.50;0.85;;;;;;;;;;5109242;28;20414;-46
2023/03/13 14:25:11;;;;;;;0.90;0.80;;;;;;;;;;5108417;28;20030;-46
2023/03/13 14:27:42;;;;;;;2.08;0.73;;;;;;;;;;5107347;28;20241;-46
2023/03/13 14:30:09;;;;;;;1.80;0.98;;;;;;;;;;5108479;28;20028;-47
2023/03/13 14:32:35;;;;;;;1.80;0.85;;;;;;;;;;5107367;28;20036;-47
2023/03/13 14:35:01;;;;;;;1.42;1.00;;;;;;;;;;5105323;28;20560;-45
2023/03/13 14:37:37;;;;;;;2.60;1.02;;;;;;;;;;5108527;28;20028;-44
2023/03/13 14:40:08;;;;;;;1.48;1.10;;;;;;;;;;5107690;28;20077;-44
2023/03/13 14:42:38;;;;;;;1.95;1.00;;;;;;;;;;5109069;28;20019;-46
2023/03/13 14:45:12;;;;;;;1.83;1.20;;;;;;;;;;5107279;28;20110;-45
2023/03/13 14:47:38;;;;;;;2.78;1.50;;;;;;;;;;5108843;28;20129;-47
2023/03/13 14:50:08;;;;;;;2.22;1.40;;;;;;;;;;5107119;28;20031;-48
2023/03/13 14:52:34;;;;;;;2.35;1.20;;;;;;;;;;5108042;28;20031;-45
2023/03/13 14:55:03;;;;;;;1.83;1.08;;;;;;;;;;5108216;28;20393;-46
2023/03/13 14:57:29;;;;;;;3.33;1.45;;;;;;;;;;5107076;28;20398;-48
2023/03/13 15:00:15;;;;;;;2.20;1.30;;;;;;;;;;5107641;28;20031;-46
2023/03/13 15:02:42;;;;;;;2.17;1.38;;;;;;;;;;5108100;28;20024;-46
2023/03/13 15:05:27;;;;;;;2.60;1.42;;;;;;;;;;5107389;28;20024;-46
2023/03/13 15:07:53;;;;;;;;;;;;;;;;;;5104378;28;20031;-46
2023/03/13 15:10:22;;;;;;;3.05;1.38;;;;;;;;;;5104827;28;19907;-46
2023/03/13 15:12:48;;;;;;;2.75;1.90;;;;;;;;;;5100337;28;20058;-48
2023/03/13 15:15:14;;;;;;;3.17;1.48;;;;;;;;;;5118054;27;20024;-47
2023/03/13 15:17:40;;;;;;;2.88;1.48;;;;;;;;;;5106110;27;20031;-48
2023/03/13 15:20:08;;;;;;;2.65;1.42;;;;;;;;;;5101764;28;20024;-46
2023/03/13 15:22:38;;;;;;;2.08;1.40;;;;;;;;;;5086547;28;20036;-47
2023/03/13 15:25:06;;;;;;;3.10;1.20;;;;;;;;;;5101750;28;20209;-47
2023/03/13 15:27:32;;;;;;;2.65;1.05;;;;;;;;;;5105674;28;20038;-48
2023/03/13 15:29:58;;;;;;;2.67;1.00;;;;;;;;;;5106625;28;20023;-46
2023/03/13 15:32:29;;;;;;;3.33;1.10;;;;;;;;;;5105904;28;20455;-48
2023/03/13 15:35:00;;;;;;;1.80;1.05;;;;;;;;;;5106994;28;20077;-47
2023/03/13 15:37:26;;;;;;;3.08;1.05;;;;;;;;;;5106668;28;20035;-46
2023/03/13 15:39:53;;;;;;;9.88;1.52;;;;;;;;;;5106092;28;20118;-46
2023/03/13 15:42:19;;;;;;;2.42;1.00;;;;;;;;;;5105703;28;20027;-46
2023/03/13 15:44:46;;;;;;;1.67;1.10;;;;;;;;;;5105864;28;20904;-46
2023/03/13 15:47:14;;;;;;;2.08;1.27;;;;;;;;;;5106196;28;20034;-47
2023/03/13 15:49:40;;;;;;;2.08;1.33;;;;;;;;;;5105332;28;20030;-46
2023/03/13 15:52:14;;;;;;;2.83;1.38;;;;;;;;;;5105210;28;20490;-47
2023/03/13 15:54:41;;;;;;;2.05;1.15;;;;;;;;;;5105513;28;20034;-46
2023/03/13 15:57:08;;;;;;;3.22;1.40;;;;;;;;;;5103858;28;20036;-46
2023/03/13 15:59:34;;;;;;;4.45;1.17;;;;;;;;;;5105497;28;20023;-48
2023/03/13 16:02:00;;;;;;;3.75;1.42;;;;;;;;;;5104870;28;20027;-48
2023/03/13 16:04:26;;;;;;;3.55;1.35;;;;;;;;;;5103939;28;20425;-48
2023/03/13 16:06:52;;;;;;;4.03;1.20;;;;;;;;;;5105308;28;20084;-46
2023/03/13 16:09:18;;;;;;;5.93;1.67;;;;;;;;;;5105380;28;20042;-46
2023/03/13 16:11:44;;;;;;;1.95;1.13;;;;;;;;;;5105100;28;20039;-46
2023/03/13 16:14:10;;;;;;;4.10;1.55;;;;;;;;;;5092858;28;20128;-45
2023/03/13 16:16:36;;;;;;;3.33;1.33;;;;;;;;;;5115369;28;20027;-47
2023/03/13 16:19:03;;;;;;;3.72;1.67;;;;;;;;;;5126337;28;20020;-48
2023/03/13 16:21:30;;;;;;;3.88;1.40;;;;;;;;;;5118716;28;20039;-50
2023/03/13 16:23:57;;;;;;;1.83;1.20;;;;;;;;;;5118476;28;20498;-45
2023/03/13 16:26:27;;;;;;;3.03;1.42;;;;;;;;;;5125938;28;20034;-47
2023/03/13 16:28:54;;;;;;;3.00;1.30;;;;;;;;;;5107705;28;20035;-46
2023/03/13 16:31:23;;;;;;;4.20;1.30;;;;;;;;;;5125459;28;20118;-50
2023/03/13 16:33:50;;;;;;;3.03;1.00;;;;;;;;;;5126104;27;20058;-47
2023/03/13 16:36:18;;;;;;;2.08;1.30;;;;;;;;;;5125325;28;20027;-47
2023/03/13 16:38:45;;;;;;;4.22;2.13;;;;;;;;;;5124492;27;20084;-47
2023/03/13 16:41:15;;;;;;;2.30;1.17;;;;;;;;;;5123732;28;20565;-49
2023/03/13 16:43:42;;;;;;;2.65;1.60;;;;;;;;;;5126207;28;20335;-48
2023/03/13 16:46:15;;;;;;;3.17;1.33;;;;;;;;;;5124488;28;20027;-45
2023/03/13 16:48:41;;;;;;;2.40;1.40;;;;;;;;;;5124978;28;20515;-47
2023/03/13 16:51:16;;;;;;;4.35;1.58;;;;;;;;;;5138333;27;20123;-48
2023/03/13 16:53:42;;;;;;;3.28;1.67;;;;;;;;;;5141946;27;20034;-47
2023/03/13 16:56:14;;;;;;;4.80;2.03;;;;;;;;;;5125319;28;20030;-46
2023/03/13 16:58:40;;;;;;;2.20;1.33;;;;;;;;;;5125341;28;20033;-48
2023/03/13 17:01:07;;;;;;;4.05;1.50;;;;;;;;;;5124336;27;20130;-45
2023/03/13 17:03:33;;;;;;;3.55;1.90;;;;;;;;;;5130859;27;20103;-49
2023/03/13 17:05:59;;;;;;;4.28;1.70;;;;;;;;;;5129542;27;20055;-47
2023/03/13 17:08:25;;;;;;;4.45;1.90;;;;;;;;;;5129027;27;20127;-47
2023/03/13 17:10:52;;;;;;;4.43;1.70;;;;;;;;;;5127432;27;20027;-46
2023/03/13 17:13:19;;;;;;;3.38;2.00;;;;;;;;;;5109825;27;20027;-47
2023/03/13 17:15:45;;;;;;;4.75;2.30;;;;;;;;;;5107899;28;20211;-47
2023/03/13 17:18:11;;;;;;;4.60;1.80;;;;;;;;;;5108057;28;20027;-46
2023/03/13 17:20:38;;;;;;;4.38;2.00;;;;;;;;;;5108633;28;20517;-47
2023/03/13 17:23:04;;;;;;;4.43;2.22;;;;;;;;;;5097050;28;20020;-48
2023/03/13 17:25:31;;;;;;;3.50;2.00;;;;;;;;;;5102090;28;20600;-45
2023/03/13 17:27:57;;;;;;;5.47;2.42;;;;;;;;;;5107111;28;20020;-47
2023/03/13 17:30:28;;;;;;;4.53;2.25;;;;;;;;;;5106178;28;20483;-48
2023/03/13 17:32:54;;;;;;;3.38;1.92;;;;;;;;;;5106664;28;20115;-49
2023/03/13 17:35:21;;;;;;;4.55;2.22;;;;;;;;;;5107256;28;20038;-47
2023/03/13 17:37:47;;;;;;;3.63;2.03;;;;;;;;;;5106603;28;20022;-47
2023/03/13 17:40:18;;;;;;;3.75;2.00;;;;;;;;;;5107348;28;20027;-45
2023/03/13 17:42:44;;;;;;;4.30;2.25;;;;;;;;;;5106787;28;20038;-50
2023/03/13 17:45:10;;;;;;;4.28;2.05;;;;;;;;;;5106244;28;20031;-46
2023/03/13 17:47:36;;;;;;;4.35;2.33;;;;;;;;;;5106857;28;20059;-48
2023/03/13 17:50:03;;;;;;;3.45;2.20;;;;;;;;;;5106274;28;20035;-48
2023/03/13 17:52:29;;;;;;;4.50;2.30;;;;;;;;;;5097127;28;20031;-46
2023/03/13 17:54:55;;;;;;;3.42;2.05;;;;;;;;;;5106302;28;20068;-47
2023/03/13 17:57:22;;;;;;;4.13;2.20;;;;;;;;;;5106172;28;20023;-45
2023/03/13 17:59:48;;;;;;;3.70;2.38;;;;;;;;;;5105835;28;20085;-48
2023/03/13 18:02:15;;;;;;;8.18;3.28;;;;;;;;;;5105999;28;20023;-48
2023/03/13 18:04:41;;;;;;;4.82;2.45;;;;;;;;;;5106720;28;20059;-46
2023/03/13 18:07:16;;;;;;;3.53;2.15;;;;;;;;;;5105762;28;20462;-46
2023/03/13 18:09:46;;;;;;;5.47;2.78;;;;;;;;;;5106852;28;20506;-47
2023/03/13 18:12:13;;;;;;;3.80;2.45;;;;;;;;;;5105231;28;20447;-47
2023/03/13 18:14:41;;;;;;;8.05;2.53;;;;;;;;;;5117861;27;20067;-46
2023/03/13 18:17:14;;;;;;;6.03;2.50;;;;;;;;;;5110144;27;20130;-46
2023/03/13 18:19:42;;;;;;;5.75;2.70;;;;;;;;;;5124534;27;20068;-48
2023/03/13 18:22:12;;;;;;;4.60;2.33;;;;;;;;;;5126711;27;20019;-45
2023/03/13 18:24:39;;;;;;;5.65;2.53;;;;;;;;;;5126033;27;20393;-47
2023/03/13 18:27:10;;;;;;;3.70;2.20;;;;;;;;;;5126311;27;20058;-48
2023/03/13 18:29:35;;;;;;;5.32;2.53;;;;;;;;;;5126287;27;20500;-46
2023/03/13 18:32:02;;;;;;;4.22;2.25;;;;;;;;;;5126386;27;20045;-47
2023/03/13 18:34:28;;;;;;;3.03;2.00;;;;;;;;;;5126115;27;20102;-48
2023/03/13 18:36:54;;;;;;;4.53;2.05;;;;;;;;;;5125848;27;20027;-49
2023/03/13 18:39:21;;;;;;;4.10;2.85;;;;;;;;;;5106129;28;20316;-48
2023/03/13 18:41:48;;;;;;;5.15;2.83;;;;;;;;;;5105615;28;20073;-46
2023/03/13 18:44:17;;;;;;;6.07;3.03;;;;;;;;;;5111960;27;20031;-46
2023/03/13 18:46:43;;;;;;;9.07;4.50;;;;;;;;;;5125303;27;20080;-46
2023/03/13 18:49:11;;;;;;;4.28;2.80;;;;;;;;;;5127436;27;20627;-46
2023/03/13 18:51:37;;;;;;;5.32;2.38;;;;;;;;;;5125877;27;20016;-50
2023/03/13 18:54:03;;;;;;;4.95;2.90;;;;;;;;;;5126117;27;20030;-48
2023/03/13 18:56:30;;;;;;;4.97;2.13;;;;;;;;;;5125501;27;20115;-48
2023/03/13 18:58:56;;;;;;;4.13;2.25;;;;;;;;;;5124794;27;20435;-46
2023/03/13 19:01:24;;;;;;;5.35;2.28;;;;;;;;;;5124814;27;20061;-48
2023/03/13 19:03:50;;;;;;;3.00;1.80;;;;;;;;;;5124845;27;20068;-47
2023/03/13 19:06:17;;;;;;;4.82;2.20;;;;;;;;;;5125534;27;20019;-46
2023/03/13 19:08:43;;;;;;;4.55;2.83;;;;;;;;;;5124011;27;20019;-46
2023/03/13 19:11:16;;;;;;;5.93;3.28;;;;;;;;;;5124362;27;20019;-48
2023/03/13 19:13:42;;;;;;;7.30;3.20;;;;;;;;;;5124914;27;20077;-48
2023/03/13 19:16:26;;;;;;;4.97;2.63;;;;;;;;;;5124635;27;20019;-46
2023/03/13 19:18:52;;;;;;;4.28;2.53;;;;;;;;;;5125513;27;20027;-49
2023/03/13 19:21:20;;;;;;;7.07;4.90;;;;;;;;;;5124186;27;20097;-48
2023/03/13 19:23:46;;;;;;;7.95;3.95;;;;;;;;;;5122994;27;20494;-47
2023/03/13 19:26:32;;;;;;;6.28;2.95;;;;;;;;;;5124482;27;20076;-49
2023/03/13 19:28:58;;;;;;;5.88;3.10;;;;;;;;;;5118575;27;20505;-46
2023/03/13 19:31:25;;;;;;;3.78;3.05;;;;;;;;;;5124269;27;20023;-45
2023/03/13 19:33:54;;;;;;;5.90;3.95;;;;;;;;;;5124486;27;20401;-47
2023/03/13 19:36:22;;;;;;;7.47;4.05;;;;;;;;;;5124479;27;20053;-48
2023/03/13 19:38:48;;;;;;;10.25;4.93;;;;;;;;;;5124541;27;20089;-47
2023/03/13 19:41:14;;;;;;;9.73;4.53;;;;;;;;;;5125468;27;20068;-46
2023/03/13 19:43:42;;;;;;;9.43;5.55;;;;;;;;;;5124392;27;20031;-46
2023/03/13 19:46:17;;;;;;;9.52;5.93;;;;;;;;;;5124786;27;20031;-46
2023/03/13 19:48:43;;;;;;;7.25;5.60;;;;;;;;;;5124341;27;20077;-46
2023/03/13 19:51:09;;;;;;;9.02;6.20;;;;;;;;;;5124407;27;20405;-45
2023/03/13 19:53:35;;;;;;;6.43;4.47;;;;;;;;;;5123676;27;20027;-44
2023/03/13 19:56:01;;;;;;;8.90;3.67;;;;;;;;;;5124032;27;20015;-45
2023/03/13 19:58:28;;;;;;;6.45;3.40;;;;;;;;;;5124555;27;20055;-43
2023/03/13 20:00:54;;;;;;;6.50;3.45;;;;;;;;;;5124635;27;20502;-44
2023/03/13 20:03:20;;;;;;;7.55;3.08;;;;;;;;;;5123772;27;20586;-45